Time;durP1;ratioP1;P1;durP2;ratioP2;P2;SDS_P1;SDS_P2;PMS_P1;PMS_P2;Temp;Humidity;BMP_temperature;BMP_pressure;BME280_temperature;BME280_humidity;BME280_pressure;Samples;Min_cycle;Max_cycle;Signal;HPM_P1;HPM_P2
2022/12/07 00:01:46;;;;;;;;;17.60;17.40;;;;;5.33;83.49;99881.13;5077552;28;8829;-56
2022/12/07 00:04:13;;;;;;;;;22.00;17.60;;;;;5.33;82.81;99875.84;5077485;28;8821;-56
2022/12/07 00:06:41;;;;;;;;;16.80;16.20;;;;;5.35;82.88;99886.31;5077839;28;8931;-58
2022/12/07 00:09:09;;;;;;;;;16.20;14.80;;;;;5.35;83.33;99886.31;5077910;28;8833;-57
2022/12/07 00:11:37;;;;;;;;;20.40;17.00;;;;;5.36;83.29;99878.31;5077554;28;8942;-58
2022/12/07 00:14:05;;;;;;;;;22.00;19.00;;;;;5.36;83.30;99873.03;5076931;28;8936;-57
2022/12/07 00:16:32;;;;;;;;;20.40;17.60;;;;;5.37;83.19;99877.38;5077126;28;8822;-57
2022/12/07 00:19:00;;;;;;;;;20.20;20.20;;;;;5.38;83.64;99872.94;5077748;28;8887;-57
2022/12/07 00:21:28;;;;;;;;;12.80;11.80;;;;;5.38;83.32;99875.59;5077539;28;9495;-56
2022/12/07 00:23:56;;;;;;;;;18.80;16.80;;;;;5.38;83.28;99881.69;5076784;28;8846;-56
2022/12/07 00:26:24;;;;;;;;;22.40;18.40;;;;;5.38;83.37;99875.59;5077294;28;8822;-56
2022/12/07 00:28:52;;;;;;;;;18.80;18.60;;;;;5.41;83.53;99867.47;5077608;28;8825;-56
2022/12/07 00:31:19;;;;;;;;;19.00;16.00;;;;;5.40;83.40;99874.53;5077711;28;8818;-58
2022/12/07 00:33:48;;;;;;;;;23.00;21.20;;;;;5.41;83.60;99876.22;5077017;28;8829;-57
2022/12/07 00:36:17;;;;;;;;;15.00;15.00;;;;;5.43;83.16;99873.50;5077260;28;8830;-56
2022/12/07 00:38:52;;;;;;;;;19.60;18.00;;;;;5.43;83.21;99870.84;5076263;28;8806;-57
2022/12/07 00:41:20;;;;;;;;;17.20;16.20;;;;;5.42;83.40;99866.53;5076297;28;8899;-57
2022/12/07 00:43:48;;;;;;;;;27.80;21.60;;;;;5.44;83.48;99870.78;5076685;28;8845;-56
2022/12/07 00:46:16;;;;;;;;;19.80;18.80;;;;;5.44;83.59;99860.22;5076686;28;8857;-56
2022/12/07 00:48:44;;;;;;;;;15.40;13.80;;;;;5.45;83.10;99861.03;5076954;28;8824;-58
2022/12/07 00:51:11;;;;;;;;;8.80;8.20;;;;;5.46;83.31;99868.06;5076736;28;8826;-58
2022/12/07 00:53:39;;;;;;;;;14.20;11.40;;;;;5.47;83.44;99859.19;5076674;28;8911;-57
2022/12/07 00:56:08;;;;;;;;;18.80;18.40;;;;;5.48;83.39;99856.44;5076926;28;8821;-56
2022/12/07 00:58:37;;;;;;;;;16.60;13.40;;;;;5.51;83.07;99858.03;5076561;28;8826;-57
2022/12/07 01:01:05;;;;;;;;;18.60;18.40;;;;;5.50;83.41;99851.06;5076615;28;8902;-57
2022/12/07 01:03:32;;;;;;;;;9.40;9.00;;;;;5.50;83.10;99851.06;5076577;28;8937;-57
2022/12/07 01:06:00;;;;;;;;;13.80;13.00;;;;;5.50;83.20;99843.16;5075090;28;8845;-57
2022/12/07 01:08:28;;;;;;;;;23.80;21.20;;;;;5.51;83.49;99842.19;5075619;28;8838;-57
2022/12/07 01:10:57;;;;;;;;;18.80;17.20;;;;;5.51;83.50;99845.69;5075571;28;8838;-58
2022/12/07 01:13:24;;;;;;;;;19.00;18.40;;;;;5.52;83.35;99844.75;5076230;28;8860;-56
2022/12/07 01:15:52;;;;;;;;;23.60;21.00;;;;;5.53;83.49;99845.63;5076136;28;8829;-58
2022/12/07 01:18:20;;;;;;;;;18.20;15.80;;;;;5.52;83.59;99839.47;5076384;28;9542;-57
2022/12/07 01:20:48;;;;;;;;;16.40;14.80;;;;;5.52;83.28;99841.25;5076259;28;9553;-58
2022/12/07 01:23:15;;;;;;;;;17.60;14.60;;;;;5.53;83.20;99849.09;5076327;28;8826;-57
2022/12/07 01:25:43;;;;;;;;;21.00;18.40;;;;;5.53;83.28;99846.44;5075973;28;8822;-57
2022/12/07 01:28:10;;;;;;;;;18.60;16.40;;;;;5.54;82.85;99844.69;5076224;28;8861;-58
2022/12/07 01:30:38;;;;;;;;;17.60;15.60;;;;;5.54;83.18;99842.03;5076163;28;8844;-58
2022/12/07 01:33:06;;;;;;;;;22.00;18.20;;;;;5.56;83.63;99848.06;5076715;28;8857;-58
2022/12/07 01:35:34;;;;;;;;;18.20;16.00;;;;;5.56;83.36;99846.25;5076259;28;9483;-57
2022/12/07 01:38:02;;;;;;;;;19.40;16.80;;;;;5.56;83.53;99842.78;5076331;28;8829;-57
2022/12/07 01:40:30;;;;;;;;;22.00;19.00;;;;;5.57;83.51;99844.47;5075887;28;9518;-58
2022/12/07 01:42:57;;;;;;;;;16.40;16.40;;;;;5.57;83.33;99847.13;5075465;28;8853;-58
2022/12/07 01:45:25;;;;;;;;;20.00;18.00;;;;;5.57;83.08;99844.47;5075221;28;8857;-57
2022/12/07 01:47:53;;;;;;;;;12.00;10.40;;;;;5.57;83.52;99842.69;5075106;28;8822;-57
2022/12/07 01:50:21;;;;;;;;;15.20;10.00;;;;;5.58;83.49;99847.03;5074765;28;8817;-58
2022/12/07 01:52:49;;;;;;;;;14.00;10.60;;;;;5.58;83.21;99844.41;5075384;28;8875;-58
2022/12/07 01:55:16;;;;;;;;;18.60;16.00;;;;;5.58;83.52;99846.16;5075151;28;8857;-58
2022/12/07 01:57:44;;;;;;;;;20.80;18.80;;;;;5.58;83.58;99844.41;5074081;28;8830;-58
2022/12/07 02:00:12;;;;;;;;;13.80;12.80;;;;;5.58;83.51;99844.41;5073825;28;8813;-57
2022/12/07 02:02:40;;;;;;;;;24.40;21.00;;;;;5.58;83.34;99843.53;5073854;28;8915;-57
2022/12/07 02:05:07;;;;;;;;;25.20;19.60;;;;;5.58;83.92;99852.31;5074345;28;8848;-58
2022/12/07 02:07:35;;;;;;;;;19.40;14.40;;;;;5.58;83.27;99846.16;5074762;28;9270;-57
2022/12/07 02:10:03;;;;;;;;;11.60;11.60;;;;;5.58;83.42;99840.88;5075259;28;8834;-57
2022/12/07 02:12:31;;;;;;;;;15.40;10.80;;;;;5.58;83.44;99836.47;5075365;28;8969;-57
2022/12/07 02:14:58;;;;;;;;;22.60;18.20;;;;;5.58;83.07;99836.47;5075554;28;8826;-57
2022/12/07 02:17:26;;;;;;;;;23.60;21.40;;;;;5.59;83.95;99834.66;5075519;28;8853;-57
2022/12/07 02:19:54;;;;;;;;;18.20;14.20;;;;;5.58;83.61;99832.97;5075331;28;8834;-55
2022/12/07 02:22:22;;;;;;;;;25.60;19.00;;;;;5.58;83.96;99835.59;5075316;28;8802;-57
2022/12/07 02:24:49;;;;;;;;;17.60;15.20;;;;;5.58;83.74;99832.97;5075642;28;8834;-57
2022/12/07 02:27:17;;;;;;;;;15.20;15.00;;;;;5.57;83.21;99829.50;5075627;28;8918;-55
2022/12/07 02:29:44;;;;;;;;;19.80;15.40;;;;;5.59;83.45;99837.31;5075323;28;9697;-56
2022/12/07 02:32:12;;;;;;;;;9.40;8.60;;;;;5.58;83.25;99840.88;5075584;28;8825;-56
2022/12/07 02:34:40;;;;;;;;;18.20;13.40;;;;;5.59;83.38;99837.31;5075623;28;8845;-55
2022/12/07 02:37:08;;;;;;;;;21.00;18.00;;;;;5.58;83.55;99836.47;5075376;28;8937;-55
2022/12/07 02:39:36;;;;;;;;;1.00;0.40;;;;;5.58;83.25;99836.47;5075345;28;8814;-56
2022/12/07 02:42:04;;;;;;;;;16.60;14.00;;;;;5.58;83.68;99836.47;5075459;28;9523;-57
2022/12/07 02:44:31;;;;;;;;;15.00;12.80;;;;;5.57;83.28;99834.78;5075385;28;8849;-57
2022/12/07 02:46:59;;;;;;;;;12.40;12.00;;;;;5.56;83.26;99840.97;5075674;28;8829;-57
2022/12/07 02:49:28;;;;;;;;;18.60;16.60;;;;;5.56;83.87;99838.34;5075343;28;8850;-57
2022/12/07 02:51:56;;;;;;;;;16.20;15.00;;;;;5.56;83.93;99837.50;5075319;28;8857;-56
2022/12/07 02:54:23;;;;;;;;;24.40;20.20;;;;;5.56;83.50;99833.03;5075482;28;8918;-56
2022/12/07 02:56:51;;;;;;;;;13.20;11.80;;;;;5.56;83.94;99832.22;5075403;28;8821;-55
2022/12/07 02:59:19;;;;;;;;;15.80;13.80;;;;;5.55;83.79;99831.34;5075696;28;8928;-55
2022/12/07 03:01:47;;;;;;;;;13.40;12.40;;;;;5.55;83.43;99835.81;5078484;28;8834;-55
2022/12/07 03:04:15;;;;;;;;;19.20;16.20;;;;;5.55;84.14;99834.00;5079064;28;8810;-57
2022/12/07 03:06:43;;;;;;;;;13.40;11.40;;;;;5.55;83.95;99839.28;5077895;28;8846;-57
2022/12/07 03:09:10;;;;;;;;;17.40;16.00;;;;;5.55;83.59;99838.44;5079110;28;8821;-56
2022/12/07 03:11:38;;;;;;;;;13.40;12.20;;;;;5.53;83.86;99833.25;5079391;28;8911;-57
2022/12/07 03:14:06;;;;;;;;;8.80;6.60;;;;;5.53;83.94;99827.13;5079038;28;8818;-58
2022/12/07 03:16:33;;;;;;;;;18.40;16.40;;;;;5.51;83.49;99829.84;5078508;28;8825;-58
2022/12/07 03:19:01;;;;;;;;;16.60;13.80;;;;;5.51;83.71;99834.28;5078351;28;8818;-59
2022/12/07 03:21:29;;;;;;;;;12.60;11.60;;;;;5.52;84.04;99834.19;5078750;28;9483;-56
2022/12/07 03:23:56;;;;;;;;;16.40;16.40;;;;;5.52;83.97;99833.34;5078835;28;8824;-56
2022/12/07 03:26:24;;;;;;;;;22.60;18.80;;;;;5.50;83.89;99829.94;5078389;28;8868;-57
2022/12/07 03:28:52;;;;;;;;;13.80;10.40;;;;;5.44;83.72;99832.94;5078184;28;8822;-58
2022/12/07 03:31:19;;;;;;;;;12.00;9.80;;;;;5.38;83.42;99828.06;5078581;28;8826;-56
2022/12/07 03:33:47;;;;;;;;;20.20;18.20;;;;;5.33;84.41;99819.56;5078228;28;8919;-59
2022/12/07 03:36:15;;;;;;;;;13.60;11.40;;;;;5.29;84.38;99820.69;5078618;28;8834;-58
2022/12/07 03:38:43;;;;;;;;;19.80;17.20;;;;;5.29;84.07;99831.22;5078263;28;8833;-56
2022/12/07 03:41:10;;;;;;;;;20.40;16.80;;;;;5.29;84.13;99828.59;5078583;28;8895;-56
2022/12/07 03:43:38;;;;;;;;;18.60;15.60;;;;;5.30;84.23;99827.66;5078390;28;8809;-57
2022/12/07 03:46:05;;;;;;;;;15.60;14.60;;;;;5.28;83.76;99827.75;5078133;28;8871;-58
2022/12/07 03:48:33;;;;;;;;;14.80;13.40;;;;;5.26;84.23;99831.44;5078032;28;8833;-58
2022/12/07 03:51:01;;;;;;;;;12.20;9.80;;;;;5.26;84.43;99826.97;5077852;28;8822;-58
2022/12/07 03:53:28;;;;;;;;;15.00;13.80;;;;;5.27;84.37;99828.72;5077819;28;8848;-57
2022/12/07 03:55:56;;;;;;;;;13.80;13.40;;;;;5.27;83.83;99825.22;5078098;28;8818;-58
2022/12/07 03:58:23;;;;;;;;;14.20;10.00;;;;;5.26;84.54;99834.91;5078074;28;8806;-58
2022/12/07 04:00:51;;;;;;;;;18.60;17.60;;;;;5.26;84.48;99834.06;5077692;28;8861;-56
2022/12/07 04:03:19;;;;;;;;;12.60;9.40;;;;;5.25;84.03;99825.28;5077928;28;9522;-56
2022/12/07 04:05:46;;;;;;;;;15.20;13.80;;;;;5.25;84.46;99832.38;5077580;28;8826;-56
2022/12/07 04:08:14;;;;;;;;;18.20;15.60;;;;;5.23;84.28;99835.09;5077289;28;8830;-58
2022/12/07 04:10:42;;;;;;;;;7.40;7.40;;;;;5.20;84.15;99827.38;5077375;28;8900;-58
2022/12/07 04:13:10;;;;;;;;;18.20;15.60;;;;;5.20;84.05;99829.16;5076987;28;8872;-58
2022/12/07 04:15:37;;;;;;;;;17.20;14.20;;;;;5.16;84.08;99827.66;5077136;28;8829;-58
2022/12/07 04:18:05;;;;;;;;;10.20;9.40;;;;;5.11;84.69;99829.72;5077317;28;8843;-57
2022/12/07 04:20:32;;;;;;;;;15.00;15.00;;;;;5.09;84.28;99831.59;5076836;28;8891;-58
2022/12/07 04:23:00;;;;;;;;;15.60;13.60;;;;;5.04;84.48;99831.88;5077194;28;8830;-58
2022/12/07 04:25:28;;;;;;;;;13.00;12.40;;;;;5.01;84.00;99836.47;5076016;28;8854;-58
2022/12/07 04:27:56;;;;;;;;;13.40;9.60;;;;;4.97;84.34;99829.66;5076407;28;8810;-59
2022/12/07 04:30:23;;;;;;;;;14.20;12.20;;;;;4.93;84.10;99829.00;5076634;28;8837;-58
2022/12/07 04:32:51;;;;;;;;;15.60;15.00;;;;;4.91;84.60;99835.28;5076920;28;8915;-58
2022/12/07 04:35:19;;;;;;;;;10.80;10.80;;;;;4.91;84.92;99844.06;5077223;28;9578;-59
2022/12/07 04:37:47;;;;;;;;;10.40;8.60;;;;;4.89;84.67;99830.13;5076502;28;8846;-59
2022/12/07 04:40:14;;;;;;;;;15.40;12.20;;;;;4.90;84.90;99828.31;5075914;28;8821;-58
2022/12/07 04:42:42;;;;;;;;;9.80;9.80;;;;;4.91;84.52;99830.88;5076644;28;8818;-57
2022/12/07 04:45:09;;;;;;;;;12.60;12.00;;;;;4.93;84.39;99830.81;5076420;28;9247;-59
2022/12/07 04:47:37;;;;;;;;;9.20;7.40;;;;;4.89;84.56;99824.84;5076147;28;8829;-59
2022/12/07 04:50:05;;;;;;;;;9.80;9.60;;;;;4.86;84.23;99827.66;5076697;28;8841;-59
2022/12/07 04:52:33;;;;;;;;;15.40;13.80;;;;;4.81;84.99;99827.09;5076791;28;9527;-59
2022/12/07 04:55:01;;;;;;;;;15.80;15.40;;;;;4.81;84.47;99831.50;5076301;28;8818;-58
2022/12/07 04:57:28;;;;;;;;;15.80;15.80;;;;;4.82;84.83;99822.66;5076622;28;9531;-59
2022/12/07 04:59:56;;;;;;;;;11.60;8.20;;;;;4.81;84.60;99827.09;5076765;28;8830;-59
2022/12/07 05:02:24;;;;;;;;;10.00;9.60;;;;;4.79;85.23;99833.38;5076388;28;8810;-59
2022/12/07 05:04:53;;;;;;;;;11.80;11.60;;;;;4.78;84.49;99829.88;5076844;28;8837;-59
2022/12/07 05:07:20;;;;;;;;;10.80;8.40;;;;;4.78;84.61;99832.53;5076162;28;8834;-59
2022/12/07 05:09:48;;;;;;;;;9.80;9.20;;;;;4.80;84.97;99824.53;5076117;28;8818;-59
2022/12/07 05:12:16;;;;;;;;;8.80;6.80;;;;;4.80;84.51;99824.53;5075224;28;8834;-59
2022/12/07 05:14:44;;;;;;;;;9.40;9.00;;;;;4.82;84.66;99827.94;5075220;28;8829;-58
2022/12/07 05:17:14;;;;;;;;;13.40;11.40;;;;;4.83;84.90;99827.84;5074201;28;8814;-58
2022/12/07 05:19:41;;;;;;;;;15.20;12.80;;;;;4.83;84.51;99829.63;5075052;28;8838;-59
2022/12/07 05:22:09;;;;;;;;;9.80;9.80;;;;;4.82;84.66;99828.78;5074266;28;8822;-58
2022/12/07 05:24:37;;;;;;;;;15.20;12.40;;;;;4.82;84.49;99825.28;5073796;28;8822;-59
2022/12/07 05:27:05;;;;;;;;;9.20;9.00;;;;;4.83;84.40;99830.47;5073473;28;8829;-59
2022/12/07 05:29:33;;;;;;;;;13.00;13.00;;;;;4.84;84.37;99836.59;5072598;28;8918;-58
2022/12/07 05:32:01;;;;;;;;;12.80;12.60;;;;;4.85;84.32;99827.72;5072215;28;8854;-59
2022/12/07 05:34:29;;;;;;;;;12.00;10.40;;;;;4.86;84.29;99834.72;5072517;28;8950;-58
2022/12/07 05:36:56;;;;;;;;;15.80;15.00;;;;;4.85;84.22;99822.47;5072983;28;8880;-58
2022/12/07 05:39:24;;;;;;;;;12.00;10.80;;;;;4.86;84.78;99827.66;5074080;28;9511;-56
2022/12/07 05:44:37;;;;;;;;;15.60;10.20;;;;;4.87;84.59;99820.59;5075124;28;8837;-58
2022/12/07 05:47:04;;;;;;;;;14.20;14.20;;;;;4.84;84.65;99821.63;5075707;28;8841;-59
2022/12/07 05:49:32;;;;;;;;;9.20;9.20;;;;;4.84;84.33;99818.13;5075152;28;8818;-59
2022/12/07 05:52:00;;;;;;;;;9.00;6.60;;;;;4.80;84.70;99820.09;5075033;28;8869;-59
2022/12/07 05:54:28;;;;;;;;;9.80;9.80;;;;;4.79;84.51;99814.94;5074840;28;8848;-59
2022/12/07 05:56:56;;;;;;;;;11.20;8.60;;;;;4.77;84.36;99815.00;5075131;28;8849;-58
2022/12/07 05:59:22;;;;;;;;;12.80;9.20;;;;;4.79;84.43;99822.84;5074705;28;8842;-59
2022/12/07 06:01:50;;;;;;;;;13.80;13.00;;;;;4.78;85.08;99811.44;5074512;28;8830;-59
2022/12/07 06:04:18;;;;;;;;;8.40;8.20;;;;;4.79;84.55;99820.19;5074381;28;8821;-59
2022/12/07 06:06:45;;;;;;;;;8.20;7.00;;;;;4.78;84.58;99821.97;5073131;28;8838;-59
2022/12/07 06:09:13;;;;;;;;;9.80;8.60;;;;;4.79;84.40;99817.56;5074129;28;8866;-58
2022/12/07 06:14:26;;;;;;;;;13.00;11.60;;;;;4.81;84.74;99807.75;5073143;28;8818;-59
2022/12/07 06:16:54;;;;;;;;;9.00;7.00;;;;;4.82;84.31;99817.38;5073264;28;8829;-55
2022/12/07 06:19:21;;;;;;;;;10.00;7.00;;;;;4.84;84.83;99812.84;5073294;28;8822;-59
2022/12/07 06:21:49;;;;;;;;;10.40;10.40;;;;;4.84;84.74;99813.72;5072506;28;8862;-58
2022/12/07 06:24:17;;;;;;;;;8.20;6.60;;;;;4.86;84.55;99811.00;5073374;28;8860;-58
2022/12/07 06:26:45;;;;;;;;;10.00;9.20;;;;;4.86;84.21;99818.91;5073548;28;8852;-59
2022/12/07 06:29:12;;;;;;;;;8.60;7.40;;;;;4.86;84.11;99818.91;5073241;28;8832;-58
2022/12/07 06:31:40;;;;;;;;;6.00;6.00;;;;;4.86;84.12;99822.38;5073123;28;8885;-59
2022/12/07 06:34:08;;;;;;;;;10.40;9.60;;;;;4.85;84.50;99823.31;5071547;28;8841;-57
2022/12/07 06:36:36;;;;;;;;;13.40;9.60;;;;;4.85;84.25;99833.88;5074209;28;8861;-58
2022/12/07 06:39:04;;;;;;;;;12.20;10.40;;;;;4.84;84.10;99829.53;5074980;28;8818;-57
2022/12/07 06:41:31;;;;;;;;;6.40;5.60;;;;;4.83;84.14;99822.56;5075232;28;8841;-58
2022/12/07 06:43:59;;;;;;;;;9.80;9.60;;;;;4.84;84.15;99832.19;5075439;28;8854;-58
2022/12/07 06:46:27;;;;;;;;;8.00;7.60;;;;;4.86;84.42;99837.38;5075022;28;8825;-58
2022/12/07 06:48:55;;;;;;;;;9.80;9.00;;;;;4.88;84.19;99824.94;5075718;28;8830;-58
2022/12/07 06:51:23;;;;;;;;;6.40;6.40;;;;;4.89;83.94;99834.53;5076413;28;8818;-58
2022/12/07 06:53:51;;;;;;;;;11.40;8.00;;;;;4.89;84.62;99832.78;5076238;28;8854;-59
2022/12/07 06:56:19;;;;;;;;;11.20;10.20;;;;;4.89;84.02;99834.53;5076889;28;8842;-59
2022/12/07 06:58:47;;;;;;;;;14.40;13.80;;;;;4.89;83.87;99834.53;5076281;28;8972;-58
2022/12/07 07:01:15;;;;;;;;;10.00;8.60;;;;;4.89;84.49;99839.81;5075369;28;8845;-59
2022/12/07 07:03:43;;;;;;;;;13.80;11.20;;;;;4.89;84.38;99834.53;5075963;28;8969;-58
2022/12/07 07:06:11;;;;;;;;;12.00;11.60;;;;;4.89;83.99;99832.78;5074690;28;8870;-58
2022/12/07 07:08:40;;;;;;;;;11.20;10.80;;;;;4.88;84.18;99835.50;5075077;28;9519;-57
2022/12/07 07:11:07;;;;;;;;;9.00;8.20;;;;;4.86;84.22;99832.09;5073682;28;8849;-59
2022/12/07 07:13:35;;;;;;;;;10.00;6.40;;;;;4.85;84.54;99827.72;5073656;28;8861;-57
2022/12/07 07:16:03;;;;;;;;;16.00;14.80;;;;;4.81;84.26;99832.38;5073898;28;9555;-59
2022/12/07 07:18:31;;;;;;;;;12.20;10.40;;;;;4.80;84.12;99832.44;5073370;28;8912;-58
2022/12/07 07:20:59;;;;;;;;;5.40;4.40;;;;;4.78;84.17;99835.16;5074158;28;8848;-59
2022/12/07 07:23:27;;;;;;;;;6.80;6.80;;;;;4.74;84.50;99838.94;5074831;28;8841;-58
2022/12/07 07:25:55;;;;;;;;;3.60;2.60;;;;;4.70;84.76;99844.44;5074230;28;8848;-56
2022/12/07 07:28:23;;;;;;;;;16.00;14.60;;;;;4.66;84.83;99840.31;5074648;28;8856;-59
2022/12/07 07:30:51;;;;;;;;;10.20;7.80;;;;;4.64;84.91;99842.19;5074837;28;8838;-59
2022/12/07 07:33:18;;;;;;;;;20.40;14.40;;;;;4.65;84.67;99844.72;5075314;28;9614;-58
2022/12/07 07:35:46;;;;;;;;;12.80;11.60;;;;;4.66;85.07;99848.22;5075828;28;8977;-58
2022/12/07 07:38:14;;;;;;;;;11.20;10.00;;;;;4.67;84.62;99847.28;5075881;28;8841;-59
2022/12/07 07:40:42;;;;;;;;;11.60;10.20;;;;;4.69;84.84;99848.88;5075070;28;8880;-58
2022/12/07 07:43:10;;;;;;;;;12.40;12.00;;;;;4.70;84.21;99849.72;5074519;28;9512;-59
2022/12/07 07:45:41;;;;;;;;;8.60;8.20;;;;;4.72;84.23;99839.94;5075253;28;8817;-59
2022/12/07 07:48:08;;;;;;;;;14.20;13.80;;;;;4.70;84.58;99842.66;5073009;28;8923;-58
2022/12/07 07:50:36;;;;;;;;;17.60;13.60;;;;;4.71;84.72;99840.91;5072950;28;8849;-58
2022/12/07 07:53:04;;;;;;;;;6.40;4.80;;;;;4.74;84.32;99845.97;5073013;28;8923;-59
2022/12/07 07:55:32;;;;;;;;;15.20;13.20;;;;;4.74;84.54;99846.84;5072597;28;9167;-57
2022/12/07 07:58:01;;;;;;;;;16.80;15.80;;;;;4.75;84.00;99847.69;5074195;28;8829;-59
2022/12/07 08:00:29;;;;;;;;;11.60;10.00;;;;;4.75;84.44;99858.22;5074592;28;8884;-58
2022/12/07 08:02:57;;;;;;;;;12.80;11.40;;;;;4.75;84.51;99851.19;5074735;28;8926;-59
2022/12/07 08:05:25;;;;;;;;;13.40;11.60;;;;;4.75;84.36;99856.44;5074471;28;8825;-59
2022/12/07 08:07:53;;;;;;;;;12.00;10.40;;;;;4.75;84.40;99848.53;5073891;28;8850;-59
2022/12/07 08:10:21;;;;;;;;;14.80;14.20;;;;;4.76;84.27;99858.16;5074075;28;8810;-58
2022/12/07 08:15:34;;;;;;;;;16.40;14.20;;;;;4.77;84.44;99856.34;5074373;28;8850;-58
2022/12/07 08:18:02;;;;;;;;;12.60;12.00;;;;;4.75;84.15;99856.44;5074570;28;8915;-58
2022/12/07 08:20:30;;;;;;;;;10.60;10.20;;;;;4.72;84.20;99856.59;5074654;28;8975;-60
2022/12/07 08:22:58;;;;;;;;;15.80;15.20;;;;;4.67;84.66;99861.31;5074511;28;8834;-58
2022/12/07 08:25:26;;;;;;;;;12.80;11.60;;;;;4.63;84.76;99853.66;5074270;28;8866;-58
2022/12/07 08:27:54;;;;;;;;;10.40;9.80;;;;;4.62;84.74;99867.75;5073007;28;8846;-58
2022/12/07 08:30:22;;;;;;;;;16.80;16.40;;;;;4.66;84.44;99858.75;5072887;28;9215;-58
2022/12/07 08:32:51;;;;;;;;;9.20;8.60;;;;;4.70;84.29;99868.19;5073027;28;8857;-58
2022/12/07 08:35:19;;;;;;;;;13.20;11.40;;;;;4.74;84.51;99869.72;5072417;28;8845;-58
2022/12/07 08:37:47;;;;;;;;;15.00;13.40;;;;;4.78;84.04;99865.97;5072582;28;8868;-58
2022/12/07 08:40:15;;;;;;;;;11.40;9.00;;;;;4.82;84.39;99870.13;5072840;28;8821;-58
2022/12/07 08:42:44;;;;;;;;;12.00;11.60;;;;;4.86;84.60;99869.03;5073050;28;8822;-58
2022/12/07 08:45:13;;;;;;;;;12.60;10.20;;;;;4.93;84.35;99870.38;5072784;28;8864;-58
2022/12/07 08:47:41;;;;;;;;;10.00;9.20;;;;;4.99;84.05;99864.72;5072010;28;8830;-58
2022/12/07 08:50:09;;;;;;;;;12.80;11.40;;;;;5.00;84.06;99866.41;5073061;28;9500;-58
2022/12/07 08:52:37;;;;;;;;;11.60;10.40;;;;;4.99;83.53;99870.00;5072361;28;8837;-58
2022/12/07 08:55:05;;;;;;;;;11.20;9.60;;;;;4.95;84.01;99866.69;5073172;28;8838;-58
2022/12/07 08:57:34;;;;;;;;;8.80;8.40;;;;;4.97;83.80;99864.81;5072094;28;8859;-58
2022/12/07 09:00:02;;;;;;;;;7.00;6.60;;;;;5.02;83.98;99862.75;5070276;28;8856;-58
2022/12/07 09:02:30;;;;;;;;;10.00;7.80;;;;;5.08;83.56;99864.19;5070361;28;8834;-58
2022/12/07 09:04:59;;;;;;;;;8.60;8.60;;;;;5.14;83.64;99863.81;5071806;28;8968;-59
2022/12/07 09:07:27;;;;;;;;;9.00;8.20;;;;;5.18;83.46;99863.53;5071512;28;8885;-58
2022/12/07 09:09:55;;;;;;;;;6.40;4.80;;;;;5.24;83.13;99867.63;5070877;28;8829;-58
2022/12/07 09:12:23;;;;;;;;;9.60;9.60;;;;;5.28;83.65;99867.34;5072019;28;8834;-58
2022/12/07 09:14:51;;;;;;;;;13.80;12.40;;;;;5.32;83.41;99865.38;5073332;28;9496;-58
2022/12/07 09:17:19;;;;;;;;;9.40;6.80;;;;;5.33;83.07;99856.53;5073864;28;8830;-58
2022/12/07 09:19:47;;;;;;;;;7.20;6.60;;;;;5.33;83.02;99852.06;5073240;28;8843;-58
2022/12/07 09:22:16;;;;;;;;;9.20;8.20;;;;;5.36;82.82;99857.19;5073270;28;9608;-58
2022/12/07 09:24:45;;;;;;;;;12.80;11.20;;;;;5.41;82.99;99857.75;5071738;28;8950;-59
2022/12/07 09:27:13;;;;;;;;;9.00;9.00;;;;;5.44;82.87;99854.94;5072450;28;9543;-58
2022/12/07 09:29:41;;;;;;;;;9.40;9.00;;;;;5.47;82.98;99857.38;5072978;28;8830;-58
2022/12/07 09:32:09;;;;;;;;;6.20;5.60;;;;;5.50;83.23;99856.34;5073216;28;8838;-58
2022/12/07 09:34:41;;;;;;;;;9.40;9.20;;;;;5.54;82.85;99860.53;5071683;28;8841;-58
2022/12/07 09:37:10;;;;;;;;;11.00;9.60;;;;;5.58;82.39;99859.38;5071000;28;8900;-58
2022/12/07 09:39:37;;;;;;;;;8.20;6.80;;;;;5.59;82.37;99847.88;5070852;28;8829;-58
2022/12/07 09:42:12;;;;;;;;;10.00;9.80;;;;;5.58;82.76;99854.09;5069728;28;8892;-58
2022/12/07 09:44:40;;;;;;;;;11.00;9.60;;;;;5.58;82.63;99854.09;5070854;28;8830;-59
2022/12/07 09:47:08;;;;;;;;;11.20;10.00;;;;;5.58;83.11;99851.44;5070573;28;8919;-58
2022/12/07 09:49:36;;;;;;;;;13.00;13.00;;;;;5.57;82.99;99857.69;5071440;28;8837;-58
2022/12/07 09:52:04;;;;;;;;;12.60;11.20;;;;;5.61;82.90;99857.41;5071082;28;8960;-57
2022/12/07 09:54:32;;;;;;;;;12.20;10.40;;;;;5.66;82.49;99850.06;5072117;28;8838;-59
2022/12/07 09:57:01;;;;;;;;;12.60;11.20;;;;;5.75;82.76;99843.34;5072762;28;9638;-58
2022/12/07 09:59:29;;;;;;;;;6.00;5.20;;;;;5.82;82.67;99842.91;5072542;28;9649;-59
2022/12/07 10:02:03;;;;;;;;;15.00;12.60;;;;;5.86;82.25;99838.28;5072072;28;8833;-59
2022/12/07 10:04:31;;;;;;;;;11.80;11.40;;;;;5.90;82.52;99845.06;5072107;28;9259;-59
2022/12/07 10:06:59;;;;;;;;;13.40;13.40;;;;;6.03;82.12;99843.38;5072537;28;8880;-58
2022/12/07 10:09:34;;;;;;;;;12.20;10.00;;;;;6.25;81.62;99841.06;5071700;28;8829;-59
2022/12/07 10:12:02;;;;;;;;;14.20;12.20;;;;;6.52;81.64;99836.66;5070793;28;8826;-59
2022/12/07 10:14:30;;;;;;;;;11.20;9.00;;;;;6.58;80.81;99837.09;5070101;28;8838;-59
2022/12/07 10:17:18;;;;;;;;;12.80;12.20;;;;;6.55;80.96;99836.44;5070903;28;8931;-58
2022/12/07 10:19:47;;;;;;;;;7.20;4.40;;;;;6.46;81.17;99844.97;5071546;28;8842;-59
2022/12/07 10:22:15;;;;;;;;;17.00;13.80;;;;;6.37;81.20;99842.94;5071499;28;8834;-58
2022/12/07 10:24:43;;;;;;;;;14.20;13.40;;;;;6.26;81.72;99835.69;5072436;28;8844;-55
2022/12/07 10:27:11;;;;;;;;;22.40;17.20;;;;;6.17;81.96;99832.78;5072315;28;8838;-58
2022/12/07 10:29:38;;;;;;;;;15.80;15.20;;;;;6.12;82.17;99829.56;5072378;28;8872;-58
2022/12/07 10:32:06;;;;;;;;;14.00;13.00;;;;;6.07;82.49;99835.13;5072275;28;8838;-59
2022/12/07 10:34:34;;;;;;;;;11.20;11.20;;;;;6.03;82.53;99832.78;5072060;28;9584;-58
2022/12/07 10:37:08;;;;;;;;;16.80;15.60;;;;;6.02;82.37;99831.09;5069280;28;8857;-58
2022/12/07 10:39:36;;;;;;;;;9.60;9.00;;;;;6.04;82.58;99835.34;5071001;28;9543;-59
2022/12/07 10:42:05;;;;;;;;;12.60;11.60;;;;;6.09;82.45;99829.75;5070917;28;8833;-59
2022/12/07 10:44:35;;;;;;;;;9.00;5.80;;;;;6.17;82.48;99824.84;5070378;28;8854;-58
2022/12/07 10:47:03;;;;;;;;;17.80;15.60;;;;;6.25;82.21;99820.78;5070230;28;8844;-59
2022/12/07 10:49:31;;;;;;;;;17.00;15.60;;;;;6.28;82.10;99817.06;5070087;28;8877;-58
2022/12/07 10:51:58;;;;;;;;;14.20;12.00;;;;;6.21;81.98;99813.13;5068937;28;8852;-58
2022/12/07 10:54:26;;;;;;;;;20.20;18.40;;;;;6.15;81.87;99813.53;5068762;28;8864;-59
2022/12/07 10:56:55;;;;;;;;;17.20;15.40;;;;;6.13;82.59;99803.03;5070532;28;8880;-59
2022/12/07 10:59:23;;;;;;;;;16.40;15.20;;;;;6.28;82.10;99803.84;5070255;28;8997;-58
2022/12/07 11:01:51;;;;;;;;;18.20;16.20;;;;;6.38;81.66;99802.31;5069741;28;8903;-57
2022/12/07 11:04:19;;;;;;;;;12.20;8.20;;;;;6.29;81.67;99801.09;5070873;28;8979;-59
2022/12/07 11:06:47;;;;;;;;;20.00;14.20;;;;;6.22;82.41;99796.31;5070060;28;8863;-59
2022/12/07 11:09:16;;;;;;;;;15.00;15.00;;;;;6.23;82.07;99798.03;5071414;28;8859;-58
2022/12/07 11:11:44;;;;;;;;;14.80;12.00;;;;;6.29;82.29;99787.06;5070729;28;8830;-59
2022/12/07 11:14:12;;;;;;;;;14.00;13.40;;;;;6.39;81.66;99781.06;5071052;28;8845;-59
2022/12/07 11:16:40;;;;;;;;;15.00;12.60;;;;;6.59;81.55;99791.16;5070892;28;8935;-59
2022/12/07 11:19:09;;;;;;;;;19.40;16.40;;;;;6.73;81.19;99780.53;5071125;28;8837;-59
2022/12/07 11:21:39;;;;;;;;;15.00;14.20;;;;;6.80;80.94;99778.31;5072661;28;8841;-58
2022/12/07 11:24:07;;;;;;;;;9.80;9.40;;;;;6.73;81.04;99782.31;5074231;28;8946;-58
2022/12/07 11:26:35;;;;;;;;;12.60;10.80;;;;;6.70;81.00;99774.59;5074246;28;8846;-58
2022/12/07 11:29:03;;;;;;;;;11.40;10.40;;;;;6.70;80.87;99769.31;5074343;28;8980;-58
2022/12/07 11:31:31;;;;;;;;;13.60;13.00;;;;;6.71;80.88;99768.34;5074924;28;8826;-58
2022/12/07 11:34:00;;;;;;;;;17.60;12.80;;;;;6.76;80.96;99771.53;5075093;28;8826;-58
2022/12/07 11:36:28;;;;;;;;;15.60;14.60;;;;;6.81;81.05;99766.81;5073766;28;8865;-58
2022/12/07 11:38:56;;;;;;;;;11.80;11.80;;;;;6.83;80.90;99763.06;5072262;28;8880;-58
2022/12/07 11:41:24;;;;;;;;;5.60;4.00;;;;;6.83;80.78;99763.06;5072573;28;8845;-59
2022/12/07 11:43:52;;;;;;;;;13.40;12.00;;;;;6.90;80.79;99756.41;5073005;28;9035;-57
2022/12/07 11:46:20;;;;;;;;;9.20;9.00;;;;;6.92;80.47;99757.19;5072513;28;8825;-58
2022/12/07 11:48:48;;;;;;;;;13.00;11.20;;;;;6.96;80.94;99752.53;5072353;28;8826;-58